createdAt,value
2023-10-24T00:00:37.736Z,97858.67
2023-10-24T00:03:25.778Z,97856.70
2023-10-24T00:05:53.843Z,97855.14
2023-10-24T00:08:21.886Z,97852.70
2023-10-24T00:10:49.974Z,97847.49
2023-10-24T00:13:18.140Z,97848.94
2023-10-24T00:15:46.136Z,97847.09
2023-10-24T00:18:14.787Z,97848.18
2023-10-24T00:20:42.950Z,97849.58
2023-10-24T00:23:11.032Z,97851.80
2023-10-24T00:25:38.875Z,97853.98
2023-10-24T00:28:07.325Z,97852.52
2023-10-24T00:30:35.652Z,97849.29
2023-10-24T00:33:04.247Z,97851.23
2023-10-24T00:35:32.108Z,97855.20
2023-10-24T00:38:00.280Z,97855.27
2023-10-24T00:40:28.150Z,97855.27
2023-10-24T00:43:02.676Z,97856.65
2023-10-24T00:45:30.739Z,97856.60
2023-10-24T00:47:58.823Z,97849.67
2023-10-24T00:50:28.128Z,97846.46
2023-10-24T00:52:56.794Z,97839.08
2023-10-24T00:55:25.101Z,97841.17
2023-10-24T00:57:53.556Z,97835.25
2023-10-24T01:00:22.866Z,97825.13
2023-10-24T01:02:50.861Z,97818.80
2023-10-24T01:05:18.982Z,97820.57
2023-10-24T01:07:47.541Z,97826.08
2023-10-24T01:10:15.728Z,97833.64
2023-10-24T01:12:43.974Z,97831.12
2023-10-24T01:15:11.947Z,97826.98
2023-10-24T01:17:52.884Z,97823.03
2023-10-24T01:20:21.169Z,97822.73
2023-10-24T01:22:49.318Z,97819.17
2023-10-24T01:25:17.388Z,97815.58
2023-10-24T01:27:45.784Z,97816.31
2023-10-24T01:30:14.411Z,97815.82
2023-10-24T01:32:42.288Z,97813.75
2023-10-24T01:35:11.130Z,97816.21
2023-10-24T01:37:39.382Z,97818.25
2023-10-24T01:40:08.212Z,97817.97
2023-10-24T01:42:36.472Z,97821.77
2023-10-24T01:45:05.252Z,97822.91
2023-10-24T01:47:33.165Z,97819.12
2023-10-24T01:50:01.720Z,97815.39
2023-10-24T01:52:30.666Z,97813.83
2023-10-24T01:54:58.776Z,97809.39
2023-10-24T01:57:26.838Z,97813.24
2023-10-24T01:59:54.753Z,97812.96
2023-10-24T02:02:22.933Z,97813.48
2023-10-24T02:04:51.190Z,97812.38
2023-10-24T02:07:21.196Z,97815.83
2023-10-24T02:09:49.252Z,97819.33
2023-10-24T02:12:17.319Z,97821.96
2023-10-24T02:14:45.096Z,97821.98
2023-10-24T02:17:12.909Z,97815.59
2023-10-24T02:19:40.653Z,97810.67
2023-10-24T02:22:08.472Z,97807.85
2023-10-24T02:24:37.319Z,97803.98
2023-10-24T02:27:05.232Z,97800.06
2023-10-24T02:29:34.762Z,97800.94
2023-10-24T02:32:04.117Z,97807.20
2023-10-24T02:34:32.452Z,97814.21
2023-10-24T02:37:00.492Z,97818.38
2023-10-24T02:39:28.498Z,97822.98
2023-10-24T02:41:57.856Z,97821.98
2023-10-24T02:44:26.604Z,97818.49
2023-10-24T02:46:54.796Z,97812.31
2023-10-24T02:49:25.725Z,97816.71
2023-10-24T02:51:53.688Z,97816.38
2023-10-24T02:54:21.798Z,97818.55
2023-10-24T02:56:49.617Z,97819.13
2023-10-24T02:59:17.867Z,97817.72
2023-10-24T03:01:45.939Z,97811.73
2023-10-24T03:04:14.095Z,97812.23
2023-10-24T03:06:42.460Z,97810.90
2023-10-24T03:09:10.261Z,97809.29
2023-10-24T03:11:38.298Z,97810.21
2023-10-24T03:14:06.299Z,97810.53
2023-10-24T03:16:35.161Z,97809.71
2023-10-24T03:19:03.209Z,97807.20
2023-10-24T03:21:31.243Z,97807.52
2023-10-24T03:23:59.109Z,97811.30
2023-10-24T03:26:27.117Z,97815.66
2023-10-24T03:28:55.663Z,97820.42
2023-10-24T03:31:23.910Z,97819.35
2023-10-24T03:33:52.080Z,97818.61
2023-10-24T03:36:19.935Z,97819.21
2023-10-24T03:38:48.029Z,97823.26
2023-10-24T03:41:16.194Z,97817.86
2023-10-24T03:43:49.740Z,97816.46
2023-10-24T03:46:18.227Z,97818.01
2023-10-24T03:48:46.093Z,97820.11
2023-10-24T03:51:14.121Z,97819.48
2023-10-24T03:53:41.914Z,97822.63
2023-10-24T03:56:09.953Z,97829.48
2023-10-24T03:58:37.986Z,97832.66
2023-10-24T04:01:06.081Z,97834.09
2023-10-24T04:03:34.017Z,97836.74
2023-10-24T04:06:01.953Z,97835.27
2023-10-24T04:08:29.703Z,97831.68
2023-10-24T04:10:57.790Z,97824.89
2023-10-24T04:13:25.770Z,97823.79
2023-10-24T04:16:00.378Z,97824.15
2023-10-24T04:18:28.898Z,97824.57
2023-10-24T04:20:57.042Z,97822.90
2023-10-24T04:23:24.932Z,97820.57
2023-10-24T04:25:52.823Z,97818.83
2023-10-24T04:28:20.769Z,97818.30
2023-10-24T04:30:48.897Z,97813.98
2023-10-24T04:33:16.885Z,97810.14
2023-10-24T04:35:47.530Z,97805.90
2023-10-24T04:38:15.587Z,97804.16
2023-10-24T04:40:43.868Z,97805.70
2023-10-24T04:43:11.849Z,97809.38
2023-10-24T04:45:40.132Z,97816.27
2023-10-24T04:48:08.378Z,97823.23
2023-10-24T04:50:38.027Z,97821.02
2023-10-24T04:53:06.861Z,97829.14
2023-10-24T04:55:35.101Z,97835.48
2023-10-24T04:58:03.949Z,97838.17
2023-10-24T05:00:32.081Z,97837.90
2023-10-24T05:03:00.542Z,97844.30
2023-10-24T05:05:28.942Z,97849.33
2023-10-24T05:07:56.985Z,97846.92
2023-10-24T05:10:25.128Z,97847.18
2023-10-24T05:12:53.226Z,97850.92
2023-10-24T05:15:21.003Z,97851.65
2023-10-24T05:17:48.881Z,97846.39
2023-10-24T05:20:18.557Z,97842.09
2023-10-24T05:22:46.492Z,97834.55
2023-10-24T05:25:14.548Z,97824.48
2023-10-24T05:27:42.471Z,97821.05
2023-10-24T05:30:13.886Z,97818.95
2023-10-24T05:32:41.944Z,97820.49
2023-10-24T05:35:10.220Z,97821.37
2023-10-24T05:37:38.376Z,97822.17
2023-10-24T05:40:07.094Z,97831.96
2023-10-24T05:42:34.890Z,97841.25
2023-10-24T05:45:03.137Z,97837.58
2023-10-24T05:47:31.336Z,97836.91
2023-10-24T05:49:59.432Z,97837.61
2023-10-24T05:52:30.043Z,97839.16
2023-10-24T05:54:59.658Z,97839.47
2023-10-24T05:57:29.234Z,97836.30
2023-10-24T05:59:57.498Z,97832.61
2023-10-24T06:02:25.355Z,97831.04
2023-10-24T06:04:53.399Z,97831.02
2023-10-24T06:07:21.322Z,97828.98
2023-10-24T06:09:49.785Z,97827.80
2023-10-24T06:12:17.661Z,97833.06
2023-10-24T06:14:45.657Z,97839.31
2023-10-24T06:17:18.543Z,97845.40
2023-10-24T06:19:50.272Z,97846.43
2023-10-24T06:22:18.550Z,97844.62
2023-10-24T06:24:46.734Z,97841.68
2023-10-24T06:27:15.503Z,97842.02
2023-10-24T06:29:43.825Z,97841.89
2023-10-24T06:32:12.340Z,97838.46
2023-10-24T06:34:40.351Z,97836.56
2023-10-24T06:37:08.224Z,97832.19
2023-10-24T06:39:36.060Z,97826.70
2023-10-24T06:42:04.256Z,97825.11
2023-10-24T06:44:32.026Z,97821.19
2023-10-24T06:47:00.047Z,97817.33
2023-10-24T06:49:28.442Z,97813.72
2023-10-24T06:51:56.836Z,97816.35
2023-10-24T06:54:24.817Z,97814.47
2023-10-24T06:56:52.991Z,97817.65
2023-10-24T06:59:20.770Z,97826.13
2023-10-24T07:01:49.552Z,97832.77
2023-10-24T07:04:17.636Z,97831.91
2023-10-24T07:06:45.547Z,97824.70
2023-10-24T07:09:14.175Z,97820.53
2023-10-24T07:11:42.257Z,97825.64
2023-10-24T07:14:10.233Z,97822.41
2023-10-24T07:16:38.415Z,97816.54
2023-10-24T07:19:06.763Z,97809.09
2023-10-24T07:21:34.758Z,97804.24
2023-10-24T07:24:02.820Z,97812.26
2023-10-24T07:26:31.865Z,97818.93
2023-10-24T07:28:59.733Z,97820.04
2023-10-24T07:31:28.120Z,97815.34
2023-10-24T07:33:56.309Z,97813.21
2023-10-24T07:36:24.418Z,97812.24
2023-10-24T07:38:52.463Z,97802.50
2023-10-24T07:41:20.440Z,97794.42
2023-10-24T07:43:48.716Z,97789.38
2023-10-24T07:46:16.755Z,97785.27
2023-10-24T07:48:45.625Z,97784.00
2023-10-24T07:51:14.247Z,97777.64
2023-10-24T07:53:42.111Z,97773.27
2023-10-24T07:56:10.194Z,97773.43
2023-10-24T07:58:38.296Z,97775.35
2023-10-24T08:01:06.854Z,97779.13
2023-10-24T08:03:35.098Z,97776.64
2023-10-24T08:06:05.353Z,97771.93
2023-10-24T08:08:33.549Z,97769.15
2023-10-24T08:11:01.717Z,97767.83
2023-10-24T08:13:30.024Z,97765.14
2023-10-24T08:15:59.885Z,97764.88
2023-10-24T08:18:28.086Z,97763.14
2023-10-24T08:20:56.328Z,97760.15
2023-10-24T08:23:24.153Z,97753.59
2023-10-24T08:25:52.306Z,97744.78
2023-10-24T08:28:20.239Z,97739.06
2023-10-24T08:30:48.118Z,97737.20
2023-10-24T08:33:18.119Z,97730.99
2023-10-24T08:35:46.305Z,97721.98
2023-10-24T08:38:14.261Z,97723.56
2023-10-24T08:40:42.171Z,97723.70
2023-10-24T08:43:10.129Z,97721.81
2023-10-24T08:45:38.730Z,97719.15
2023-10-24T08:48:07.341Z,97714.87
2023-10-24T08:50:35.402Z,97718.96
2023-10-24T08:53:03.352Z,97721.79
2023-10-24T08:55:31.627Z,97720.12
2023-10-24T08:58:01.632Z,97719.05
2023-10-24T09:00:29.888Z,97715.77
2023-10-24T09:02:58.087Z,97710.67
2023-10-24T09:05:26.983Z,97705.81
2023-10-24T09:07:55.248Z,97696.31
2023-10-24T09:10:23.432Z,97691.37
2023-10-24T09:12:55.678Z,97691.23
2023-10-24T09:15:23.638Z,97689.11
2023-10-24T09:17:54.576Z,97689.04
2023-10-24T09:20:22.856Z,97695.54
2023-10-24T09:22:51.502Z,97691.33
2023-10-24T09:25:21.763Z,97689.11
2023-10-24T09:27:49.758Z,97684.16
2023-10-24T09:30:18.244Z,97674.95
2023-10-24T09:32:47.283Z,97661.39
2023-10-24T09:35:15.495Z,97660.46
2023-10-24T09:37:47.625Z,97668.94
2023-10-24T09:40:16.044Z,97672.20
2023-10-24T09:42:44.625Z,97663.15
2023-10-24T09:45:12.810Z,97656.61
2023-10-24T09:47:44.304Z,97642.16
2023-10-24T09:50:15.329Z,97638.27
2023-10-24T09:52:44.416Z,97633.03
2023-10-24T09:55:14.466Z,97630.66
2023-10-24T09:57:45.725Z,97624.23
2023-10-24T10:00:16.412Z,97620.91
2023-10-24T10:02:46.328Z,97622.59
2023-10-24T10:05:15.992Z,97625.06
2023-10-24T10:07:48.744Z,97620.34
2023-10-24T10:10:18.164Z,97617.66
2023-10-24T10:12:47.495Z,97616.59
2023-10-24T10:15:24.850Z,97615.73
2023-10-24T10:18:15.773Z,97613.02
2023-10-24T10:20:53.513Z,97609.00
2023-10-24T10:23:37.462Z,97604.31
2023-10-24T10:26:09.861Z,97601.29
2023-10-24T10:28:56.502Z,97600.13
2023-10-24T10:32:42.425Z,97600.98
2023-10-24T10:34:15.984Z,97600.41
2023-10-24T10:36:54.396Z,97599.41
2023-10-24T10:39:22.383Z,97594.96
2023-10-24T10:41:50.457Z,97588.69
2023-10-24T10:44:40.636Z,97584.03
2023-10-24T10:47:09.700Z,97585.12
2023-10-24T10:49:39.429Z,97585.72
2023-10-24T10:52:19.502Z,97584.60
2023-10-24T10:54:55.997Z,97576.87
2023-10-24T10:57:28.555Z,97574.72
2023-10-24T11:00:04.347Z,97564.90
2023-10-24T11:02:32.474Z,97557.74
2023-10-24T11:05:00.484Z,97555.95
2023-10-24T11:07:47.430Z,97547.13
2023-10-24T11:10:16.846Z,97537.48
2023-10-24T11:12:48.629Z,97532.98
2023-10-24T11:15:18.397Z,97527.74
2023-10-24T11:17:50.105Z,97524.02
2023-10-24T11:20:23.614Z,97526.23
2023-10-24T11:22:52.619Z,97523.63
2023-10-24T11:25:21.043Z,97521.88
2023-10-24T11:27:51.186Z,97517.59
2023-10-24T11:30:19.498Z,97514.63
2023-10-24T11:32:47.659Z,97511.63
2023-10-24T11:35:15.684Z,97508.41
2023-10-24T11:37:43.738Z,97507.15
2023-10-24T11:40:12.173Z,97502.64
2023-10-24T11:42:40.228Z,97497.73
2023-10-24T11:45:08.412Z,97490.66
2023-10-24T11:47:36.547Z,97482.70
2023-10-24T11:50:04.593Z,97476.77
2023-10-24T11:52:32.964Z,97464.61
2023-10-24T11:55:02.176Z,97460.92
2023-10-24T11:57:30.109Z,97460.19
2023-10-24T11:59:58.354Z,97455.90
2023-10-24T12:02:26.786Z,97451.42
2023-10-24T12:04:54.776Z,97448.70
2023-10-24T12:07:22.935Z,97443.79
2023-10-24T12:09:50.951Z,97436.30
2023-10-24T12:12:18.946Z,97429.39
2023-10-24T12:14:47.117Z,97426.61
2023-10-24T12:17:14.991Z,97426.20
2023-10-24T12:19:43.388Z,97428.34
2023-10-24T12:22:11.576Z,97425.17
2023-10-24T12:24:39.663Z,97425.15
2023-10-24T12:27:07.583Z,97423.63
2023-10-24T12:29:35.646Z,97423.02
2023-10-24T12:32:03.820Z,97416.77
2023-10-24T12:34:31.925Z,97415.43
2023-10-24T12:37:03.705Z,97412.14
2023-10-24T12:39:31.776Z,97409.59
2023-10-24T12:41:59.612Z,97400.91
2023-10-24T12:44:27.892Z,97398.00
2023-10-24T12:46:55.779Z,97392.89
2023-10-24T12:49:23.670Z,97394.79
2023-10-24T12:51:52.094Z,97395.00
2023-10-24T12:54:20.264Z,97397.86
2023-10-24T12:56:48.233Z,97396.36
2023-10-24T12:59:16.171Z,97393.84
2023-10-24T13:01:45.494Z,97394.02
2023-10-24T13:04:13.547Z,97390.67
2023-10-24T13:06:42.057Z,97388.60
2023-10-24T13:09:10.227Z,97385.77
2023-10-24T13:11:43.133Z,97377.46
2023-10-24T13:14:12.613Z,97373.10
2023-10-24T13:16:40.938Z,97374.41
2023-10-24T13:19:08.912Z,97368.84
2023-10-24T13:21:36.932Z,97364.40
2023-10-24T13:24:05.185Z,97358.55
2023-10-24T13:26:33.312Z,97357.12
2023-10-24T13:29:02.435Z,97359.44
2023-10-24T13:31:30.564Z,97360.27
2023-10-24T13:34:47.163Z,97362.52
2023-10-24T13:36:46.958Z,97356.52
2023-10-24T13:39:17.851Z,97359.38
2023-10-24T13:41:45.885Z,97353.75
2023-10-24T13:44:14.246Z,97353.27
2023-10-24T13:46:42.476Z,97350.55
2023-10-24T13:49:10.713Z,97352.23
2023-10-24T13:51:39.319Z,97359.23
2023-10-24T13:54:07.903Z,97363.85
2023-10-24T13:56:35.940Z,97361.52
2023-10-24T13:59:03.835Z,97358.89
2023-10-24T14:01:31.796Z,97356.58
2023-10-24T14:04:02.681Z,97350.56
2023-10-24T14:06:30.730Z,97335.66
2023-10-24T14:08:58.643Z,97326.33
2023-10-24T14:11:26.621Z,97322.38
2023-10-24T14:13:54.672Z,97327.75
2023-10-24T14:16:22.869Z,97331.40
2023-10-24T14:18:51.066Z,97328.97
2023-10-24T14:21:19.128Z,97327.66
2023-10-24T14:23:46.961Z,97329.16
2023-10-24T14:26:14.870Z,97328.86
2023-10-24T14:28:42.930Z,97329.50
2023-10-24T14:31:11.047Z,97329.55
2023-10-24T14:33:38.994Z,97328.73
2023-10-24T14:36:07.156Z,97323.83
2023-10-24T14:38:35.043Z,97313.75
2023-10-24T14:41:03.136Z,97302.96
2023-10-24T14:43:31.109Z,97298.53
2023-10-24T14:45:59.092Z,97299.81
2023-10-24T14:48:27.120Z,97304.23
2023-10-24T14:50:55.272Z,97304.95
2023-10-24T14:53:23.154Z,97303.02
2023-10-24T14:55:51.107Z,97307.45
2023-10-24T14:58:19.950Z,97309.67
2023-10-24T15:00:48.995Z,97309.60
2023-10-24T15:03:17.999Z,97304.85
2023-10-24T15:05:46.674Z,97305.25
2023-10-24T15:08:14.892Z,97304.42
2023-10-24T15:10:42.809Z,97300.61
2023-10-24T15:13:10.628Z,97301.39
2023-10-24T15:15:38.572Z,97303.66
2023-10-24T15:18:06.653Z,97299.84
2023-10-24T15:20:35.570Z,97292.51
2023-10-24T15:23:03.694Z,97288.60
2023-10-24T15:25:33.479Z,97291.52
2023-10-24T15:28:02.283Z,97290.10
2023-10-24T15:30:30.105Z,97291.96
2023-10-24T15:32:58.071Z,97291.27
2023-10-24T15:35:26.311Z,97293.45
2023-10-24T15:37:54.441Z,97291.39
2023-10-24T15:40:22.548Z,97294.19
2023-10-24T15:42:50.435Z,97301.33
2023-10-24T15:45:18.341Z,97301.34
2023-10-24T15:47:47.730Z,97301.06
2023-10-24T15:50:17.668Z,97303.46
2023-10-24T15:52:48.123Z,97304.93
2023-10-24T15:55:27.505Z,97308.13
2023-10-24T15:57:58.851Z,97307.81
2023-10-24T16:00:29.638Z,97306.77
2023-10-24T16:02:57.666Z,97310.02
2023-10-24T16:05:25.912Z,97305.63
2023-10-24T16:07:53.937Z,97307.45
2023-10-24T16:10:22.138Z,97309.02
2023-10-24T16:12:50.062Z,97307.85
2023-10-24T16:15:18.017Z,97304.40
2023-10-24T16:17:45.954Z,97300.23
2023-10-24T16:20:13.907Z,97298.59
2023-10-24T16:22:42.176Z,97297.30
2023-10-24T16:25:10.743Z,97288.14
2023-10-24T16:27:38.738Z,97281.36
2023-10-24T16:30:10.314Z,97276.99
2023-10-24T16:32:39.673Z,97279.48
2023-10-24T16:35:10.205Z,97282.76
2023-10-24T16:37:39.633Z,97283.11
2023-10-24T16:40:08.037Z,97284.42
2023-10-24T16:42:36.092Z,97277.30
2023-10-24T16:45:04.176Z,97274.55
2023-10-24T16:47:32.769Z,97267.39
2023-10-24T16:50:00.889Z,97267.77
2023-10-24T16:52:29.199Z,97264.21
2023-10-24T16:54:57.169Z,97259.38
2023-10-24T16:57:25.260Z,97261.60
2023-10-24T16:59:56.280Z,97263.90
2023-10-24T17:02:24.388Z,97264.59
2023-10-24T17:04:52.557Z,97259.39
2023-10-24T17:07:20.703Z,97257.17
2023-10-24T17:09:48.542Z,97250.61
2023-10-24T17:12:16.537Z,97251.05
2023-10-24T17:14:46.379Z,97250.02
2023-10-24T17:17:22.136Z,97245.23
2023-10-24T17:19:50.469Z,97236.14
2023-10-24T17:22:18.301Z,97232.92
2023-10-24T17:24:46.217Z,97232.20
2023-10-24T17:27:16.573Z,97229.88
2023-10-24T17:29:44.542Z,97226.80
2023-10-24T17:32:12.551Z,97228.13
2023-10-24T17:34:41.652Z,97231.41
2023-10-24T17:37:11.347Z,97228.83
2023-10-24T17:39:39.503Z,97221.55
2023-10-24T17:42:09.488Z,97219.80
2023-10-24T17:44:37.673Z,97218.78
2023-10-24T17:47:06.176Z,97215.80
2023-10-24T17:49:36.578Z,97220.13
2023-10-24T17:52:04.958Z,97218.64
2023-10-24T17:54:36.821Z,97215.89
2023-10-24T17:57:05.000Z,97210.19
2023-10-24T17:59:33.091Z,97203.86
2023-10-24T18:02:02.482Z,97202.03
2023-10-24T18:04:33.095Z,97204.95
2023-10-24T18:07:24.169Z,97204.65
2023-10-24T18:09:53.094Z,97206.80
2023-10-24T18:12:21.166Z,97220.36
2023-10-24T18:14:50.481Z,97221.38
2023-10-24T18:17:18.583Z,97223.60
2023-10-24T18:20:00.191Z,97224.75
2023-10-24T18:22:28.304Z,97214.03
2023-10-24T18:24:58.947Z,97205.87
2023-10-24T18:27:27.238Z,97204.98
2023-10-24T18:29:55.102Z,97197.99
2023-10-24T18:32:23.058Z,97199.05
2023-10-24T18:34:51.373Z,97190.30
2023-10-24T18:37:19.811Z,97184.76
2023-10-24T18:39:48.122Z,97184.65
2023-10-24T18:42:18.096Z,97189.05
2023-10-24T18:44:48.706Z,97186.92
2023-10-24T18:47:18.950Z,97183.00
2023-10-24T18:49:48.524Z,97180.38
2023-10-24T18:52:19.509Z,97175.68
2023-10-24T18:54:47.313Z,97170.69
2023-10-24T18:57:17.905Z,97172.36
2023-10-24T18:59:45.975Z,97167.67
2023-10-24T19:04:45.511Z,97155.04
2023-10-24T19:07:13.584Z,97155.00
2023-10-24T19:09:41.769Z,97156.05
2023-10-24T19:12:11.834Z,97154.33
2023-10-24T19:17:12.496Z,97148.36
2023-10-24T19:19:54.206Z,97149.46
2023-10-24T19:22:22.180Z,97149.73
2023-10-24T19:25:00.821Z,97144.72
2023-10-24T19:27:30.618Z,97139.73
2023-10-24T19:30:01.657Z,97140.79
2023-10-24T19:32:32.821Z,97139.89
2023-10-24T19:35:00.921Z,97136.88
2023-10-24T19:37:34.903Z,97122.08
2023-10-24T19:40:09.234Z,97103.77
2023-10-24T19:42:37.445Z,97097.45
2023-10-24T19:45:06.053Z,97096.48
2023-10-24T19:47:38.507Z,97094.75
2023-10-24T19:50:08.365Z,97091.44
2023-10-24T19:52:36.324Z,97086.49
2023-10-24T19:55:08.841Z,97077.98
2023-10-24T19:57:39.031Z,97070.97
2023-10-24T20:00:10.767Z,97074.11
2023-10-24T20:02:38.975Z,97076.02
2023-10-24T20:05:08.276Z,97072.27
2023-10-24T20:07:38.248Z,97071.05
2023-10-24T20:11:41.190Z,97065.90
2023-10-24T20:12:57.021Z,97062.67
2023-10-24T20:15:25.311Z,97062.34
2023-10-24T20:17:55.134Z,97056.45
2023-10-24T20:20:23.513Z,97054.64
2023-10-24T20:22:52.203Z,97047.17
2023-10-24T20:25:20.771Z,97042.59
2023-10-24T20:27:48.782Z,97048.49
2023-10-24T20:30:16.909Z,97043.32
2023-10-24T20:32:45.643Z,97035.17
2023-10-24T20:35:16.536Z,97032.35
2023-10-24T20:37:44.477Z,97030.78
2023-10-24T20:40:12.783Z,97032.54
2023-10-24T20:42:40.983Z,97029.81
2023-10-24T20:45:09.380Z,97024.27
2023-10-24T20:47:37.813Z,97012.23
2023-10-24T20:50:06.410Z,97006.05
2023-10-24T20:52:35.483Z,97008.09
2023-10-24T20:55:04.399Z,97003.73
2023-10-24T20:57:33.225Z,96996.98
2023-10-24T21:00:01.341Z,96993.05
2023-10-24T21:02:29.580Z,96991.10
2023-10-24T21:04:57.649Z,96995.15
2023-10-24T21:07:25.695Z,96987.45
2023-10-24T21:09:53.630Z,96985.16
2023-10-24T21:12:21.688Z,96985.67
2023-10-24T21:14:49.756Z,96984.02
2023-10-24T21:17:17.636Z,96991.06
2023-10-24T21:19:46.384Z,96992.35
2023-10-24T21:22:14.264Z,96985.77
2023-10-24T21:24:42.298Z,96987.35
2023-10-24T21:27:10.320Z,96985.62
2023-10-24T21:29:38.290Z,96973.55
2023-10-24T21:32:06.738Z,96965.13
2023-10-24T21:34:34.957Z,96960.46
2023-10-24T21:37:03.147Z,96953.77
2023-10-24T21:39:32.639Z,96952.03
2023-10-24T21:42:01.235Z,96949.73
2023-10-24T21:44:34.018Z,96941.09
2023-10-24T21:47:07.806Z,96935.82
2023-10-24T21:49:35.882Z,96926.56
2023-10-24T21:52:04.013Z,96921.41
2023-10-24T21:54:31.963Z,96918.35
2023-10-24T21:56:59.876Z,96914.58
2023-10-24T21:59:28.006Z,96909.09
2023-10-24T22:01:56.193Z,96907.77
2023-10-24T22:04:24.357Z,96910.02
2023-10-24T22:06:52.455Z,96912.39
2023-10-24T22:09:20.578Z,96908.23
2023-10-24T22:11:49.509Z,96899.59
2023-10-24T22:14:17.352Z,96892.56
2023-10-24T22:16:45.266Z,96889.88
2023-10-24T22:19:13.515Z,96887.58
2023-10-24T22:21:41.687Z,96886.45
2023-10-24T22:24:10.343Z,96880.79
2023-10-24T22:26:38.311Z,96878.80
2023-10-24T22:29:06.376Z,96878.42
2023-10-24T22:31:34.646Z,96867.48
2023-10-24T22:34:02.875Z,96859.41
2023-10-24T22:36:30.808Z,96852.78
2023-10-24T22:38:58.668Z,96850.77
2023-10-24T22:41:26.659Z,96847.55
2023-10-24T22:43:54.503Z,96843.96
2023-10-24T22:46:22.910Z,96840.54
2023-10-24T22:48:51.069Z,96845.68
2023-10-24T22:51:19.337Z,96849.44
2023-10-24T22:53:47.713Z,96851.23
2023-10-24T22:56:15.892Z,96844.77
2023-10-24T22:58:45.506Z,96844.31
2023-10-24T23:01:14.172Z,96843.90
2023-10-24T23:03:42.288Z,96847.14
2023-10-24T23:06:10.449Z,96851.10
2023-10-24T23:08:38.498Z,96847.08
2023-10-24T23:11:07.076Z,96842.02
2023-10-24T23:13:35.666Z,96837.80
2023-10-24T23:16:08.446Z,96839.21
2023-10-24T23:18:38.487Z,96846.38
2023-10-24T23:21:06.332Z,96851.73
2023-10-24T23:23:34.501Z,96851.60
2023-10-24T23:26:02.681Z,96853.36
2023-10-24T23:28:31.056Z,96862.56
2023-10-24T23:30:59.309Z,96872.73
2023-10-24T23:33:27.276Z,96877.91
2023-10-24T23:35:55.289Z,96875.70
2023-10-24T23:38:23.121Z,96874.65
2023-10-24T23:40:51.213Z,96875.62
2023-10-24T23:43:19.157Z,96875.61
2023-10-24T23:45:47.159Z,96877.27
2023-10-24T23:48:15.003Z,96872.86
2023-10-24T23:50:43.078Z,96874.46
2023-10-24T23:53:11.152Z,96887.14
2023-10-24T23:55:39.024Z,96894.11
2023-10-24T23:58:07.682Z,96897.50
